createdAt,value
2018-07-20T00:01:32.904Z,52.89
2018-07-20T00:04:02.379Z,52.90
2018-07-20T00:06:31.002Z,53.44
2018-07-20T00:08:59.614Z,53.25
2018-07-20T00:11:28.205Z,53.48
2018-07-20T00:13:56.915Z,53.47
2018-07-20T00:16:25.703Z,53.86
2018-07-20T00:18:54.260Z,53.37
2018-07-20T00:21:23.014Z,53.82
2018-07-20T00:23:51.778Z,53.64
2018-07-20T00:26:21.378Z,53.33
2018-07-20T00:28:50.098Z,53.85
2018-07-20T00:31:19.258Z,53.87
2018-07-20T00:33:47.750Z,53.71
2018-07-20T00:36:17.645Z,53.30
2018-07-20T00:38:46.180Z,53.24
2018-07-20T00:41:15.337Z,53.68
2018-07-20T00:43:44.668Z,53.15
2018-07-20T00:46:13.362Z,53.02
2018-07-20T00:48:41.934Z,52.82
2018-07-20T00:51:10.871Z,52.43
2018-07-20T00:53:39.690Z,53.09
2018-07-20T00:56:08.250Z,53.17
2018-07-20T00:58:37.305Z,53.71
2018-07-20T01:01:05.916Z,53.59
2018-07-20T01:03:34.530Z,53.92
2018-07-20T01:06:03.223Z,53.61
2018-07-20T01:08:31.952Z,53.87
2018-07-20T01:11:01.923Z,53.83
2018-07-20T01:13:30.676Z,53.47
2018-07-20T01:15:59.263Z,54.06
2018-07-20T01:18:28.051Z,54.15
2018-07-20T01:20:56.825Z,54.19
2018-07-20T01:23:25.459Z,54.41
2018-07-20T01:25:54.349Z,54.40
2018-07-20T01:28:22.986Z,54.31
2018-07-20T01:30:51.805Z,53.98
2018-07-20T01:33:22.126Z,53.97
2018-07-20T01:35:51.412Z,54.75
2018-07-20T01:38:20.147Z,54.17
2018-07-20T01:40:48.814Z,54.65
2018-07-20T01:43:17.748Z,53.86
2018-07-20T01:45:46.457Z,54.05
2018-07-20T01:48:15.148Z,53.87
2018-07-20T01:50:43.998Z,54.29
2018-07-20T01:53:12.547Z,53.78
2018-07-20T01:55:41.157Z,53.72
2018-07-20T01:58:11.335Z,54.25
2018-07-20T02:00:40.123Z,54.01
2018-07-20T02:03:09.086Z,53.92
2018-07-20T02:05:39.891Z,54.58
2018-07-20T02:08:09.404Z,54.36
2018-07-20T02:10:38.118Z,53.79
2018-07-20T02:13:07.551Z,53.83
2018-07-20T02:15:37.172Z,54.18
2018-07-20T02:18:05.873Z,53.71
2018-07-20T02:20:34.876Z,53.59
2018-07-20T02:23:03.991Z,54.40
2018-07-20T02:25:32.868Z,53.81
2018-07-20T02:28:01.614Z,54.34
2018-07-20T02:30:31.860Z,53.72
2018-07-20T02:33:00.614Z,54.31
2018-07-20T02:35:29.436Z,53.10
2018-07-20T02:37:58.170Z,54.28
2018-07-20T02:40:26.908Z,54.43
2018-07-20T02:42:55.720Z,54.15
2018-07-20T02:45:24.166Z,54.44
2018-07-20T02:47:52.787Z,54.88
2018-07-20T02:50:21.445Z,54.41
2018-07-20T02:52:50.057Z,55.16
2018-07-20T02:55:19.619Z,55.06
2018-07-20T02:57:48.190Z,54.68
2018-07-20T03:00:16.754Z,54.90
2018-07-20T03:02:45.714Z,54.91
2018-07-20T03:05:15.304Z,55.07
2018-07-20T03:07:43.925Z,55.23
2018-07-20T03:10:12.903Z,55.77
2018-07-20T03:12:41.429Z,56.06
2018-07-20T03:15:10.078Z,56.01
2018-07-20T03:17:38.696Z,56.13
2018-07-20T03:20:07.268Z,56.43
2018-07-20T03:22:35.889Z,55.99
2018-07-20T03:25:04.454Z,56.12
2018-07-20T03:27:33.026Z,55.51
2018-07-20T03:30:01.659Z,55.79
2018-07-20T03:32:30.115Z,55.39
2018-07-20T03:34:58.623Z,55.09
2018-07-20T03:37:27.328Z,55.57
2018-07-20T03:39:55.818Z,55.12
2018-07-20T03:42:24.441Z,55.24
2018-07-20T03:44:53.337Z,54.80
2018-07-20T03:47:21.806Z,55.14
2018-07-20T03:49:51.143Z,55.16
2018-07-20T03:52:20.216Z,55.22
2018-07-20T03:54:50.614Z,54.87
2018-07-20T03:57:19.441Z,54.82
2018-07-20T03:59:48.981Z,54.72
2018-07-20T04:02:18.308Z,55.70
2018-07-20T04:04:47.480Z,54.97
2018-07-20T04:07:16.627Z,54.84
2018-07-20T04:09:45.445Z,55.34
2018-07-20T04:12:15.472Z,54.94
2018-07-20T04:14:44.657Z,55.14
2018-07-20T04:17:14.050Z,55.16
2018-07-20T04:19:43.841Z,55.08
2018-07-20T04:22:12.773Z,55.31
2018-07-20T04:24:42.438Z,54.98
2018-07-20T04:27:12.856Z,54.84
2018-07-20T04:29:41.494Z,54.58
2018-07-20T04:32:11.828Z,54.14
2018-07-20T04:34:42.197Z,54.44
2018-07-20T04:37:10.782Z,54.48
2018-07-20T04:39:39.620Z,54.29
2018-07-20T04:42:09.322Z,54.80
2018-07-20T04:44:37.875Z,54.35
2018-07-20T04:47:06.377Z,54.29
2018-07-20T04:49:35.284Z,54.51
2018-07-20T04:52:03.975Z,53.71
2018-07-20T04:54:32.564Z,53.37
2018-07-20T04:57:01.161Z,53.75
2018-07-20T04:59:29.738Z,53.92
2018-07-20T05:01:58.446Z,53.71
2018-07-20T05:04:27.969Z,52.93
2018-07-20T05:06:56.555Z,53.40
2018-07-20T05:09:25.068Z,53.13
2018-07-20T05:11:53.603Z,54.01
2018-07-20T05:14:22.117Z,54.18
2018-07-20T05:16:50.943Z,54.59
2018-07-20T05:19:19.427Z,54.06
2018-07-20T05:21:49.235Z,54.09
2018-07-20T05:24:17.836Z,54.17
2018-07-20T05:26:46.640Z,54.14
2018-07-20T05:29:15.809Z,53.92
2018-07-20T05:31:44.489Z,53.92
2018-07-20T05:34:13.990Z,54.09
2018-07-20T05:36:43.960Z,54.21
2018-07-20T05:39:14.461Z,53.79
2018-07-20T05:41:43.095Z,53.82
2018-07-20T05:44:13.696Z,53.28
2018-07-20T05:46:42.840Z,53.40
2018-07-20T05:49:12.940Z,53.73
2018-07-20T05:51:41.848Z,53.74
2018-07-20T05:54:10.943Z,53.66
2018-07-20T05:56:39.682Z,53.12
2018-07-20T05:59:09.862Z,52.07
2018-07-20T06:01:38.511Z,52.37
2018-07-20T06:04:07.324Z,52.24
2018-07-20T06:06:35.972Z,52.94
2018-07-20T06:09:07.013Z,52.15
2018-07-20T06:11:36.078Z,52.81
2018-07-20T06:14:04.576Z,53.16
2018-07-20T06:16:34.926Z,53.02
2018-07-20T06:19:04.098Z,52.87
2018-07-20T06:21:32.659Z,53.31
2018-07-20T06:24:01.958Z,52.42
2018-07-20T06:26:31.111Z,52.24
2018-07-20T06:29:00.815Z,52.09
2018-07-20T06:31:29.333Z,52.12
2018-07-20T06:33:58.942Z,51.72
2018-07-20T06:36:28.437Z,51.97
2018-07-20T06:38:57.090Z,51.58
2018-07-20T06:41:25.713Z,51.10
2018-07-20T06:43:55.248Z,51.27
2018-07-20T06:46:23.930Z,51.01
2018-07-20T06:48:52.857Z,50.64
2018-07-20T06:51:21.559Z,50.16
2018-07-20T06:53:50.229Z,50.69
2018-07-20T06:56:18.763Z,51.38
2018-07-20T06:58:47.907Z,50.68
2018-07-20T07:01:16.645Z,50.92
2018-07-20T07:03:45.615Z,50.26
2018-07-20T07:06:14.556Z,49.51
2018-07-20T07:08:43.053Z,49.40
2018-07-20T07:11:11.757Z,49.79
2018-07-20T07:13:40.318Z,49.83
2018-07-20T07:16:08.845Z,49.55
2018-07-20T07:18:39.450Z,49.94
2018-07-20T07:21:09.297Z,49.69
2018-07-20T07:23:37.899Z,49.51
2018-07-20T07:26:06.379Z,50.72
2018-07-20T07:28:37.134Z,49.24
2018-07-20T07:31:06.008Z,49.37
2018-07-20T07:33:34.612Z,50.41
2018-07-20T07:38:30.878Z,50.03
2018-07-20T07:40:59.447Z,50.00
2018-07-20T07:43:28.310Z,50.13
2018-07-20T07:45:56.985Z,49.22
2018-07-20T07:48:25.540Z,48.99
2018-07-20T07:50:54.327Z,48.77
2018-07-20T07:53:22.838Z,48.88
2018-07-20T07:55:51.668Z,49.03
2018-07-20T07:58:21.179Z,49.36
2018-07-20T08:00:51.408Z,48.46
2018-07-20T08:03:20.264Z,47.69
2018-07-20T08:05:49.488Z,48.51
2018-07-20T08:08:18.520Z,48.65
2018-07-20T08:10:48.114Z,47.27
2018-07-20T08:13:16.957Z,48.22
2018-07-20T08:15:45.582Z,47.16
2018-07-20T08:18:15.002Z,47.73
2018-07-20T08:20:43.629Z,46.92
2018-07-20T08:23:12.275Z,46.79
2018-07-20T08:25:40.898Z,46.60
2018-07-20T08:28:09.889Z,46.71
2018-07-20T08:30:38.771Z,46.61
2018-07-20T08:33:07.346Z,46.44
2018-07-20T08:35:36.753Z,46.40
2018-07-20T08:38:05.523Z,46.02
2018-07-20T08:40:34.115Z,46.76
2018-07-20T08:43:02.684Z,47.11
2018-07-20T08:45:31.216Z,47.14
2018-07-20T08:48:00.440Z,47.21
2018-07-20T08:50:29.045Z,46.52
2018-07-20T08:52:57.498Z,46.18
2018-07-20T08:55:26.079Z,46.39
2018-07-20T08:57:54.669Z,47.36
2018-07-20T09:00:23.311Z,47.27
2018-07-20T09:02:51.828Z,46.64
2018-07-20T09:05:21.143Z,45.84
2018-07-20T09:07:49.708Z,45.98
2018-07-20T09:10:19.196Z,46.86
2018-07-20T09:12:48.689Z,45.58
2018-07-20T09:15:19.722Z,45.73
2018-07-20T09:17:48.278Z,44.85
2018-07-20T09:20:17.194Z,43.71
2018-07-20T09:22:45.751Z,45.03
2018-07-20T09:25:14.523Z,44.45
2018-07-20T09:27:43.106Z,44.35
2018-07-20T09:30:12.631Z,44.30
2018-07-20T09:32:41.379Z,44.83
2018-07-20T09:35:09.903Z,44.97
2018-07-20T09:37:39.044Z,44.94
2018-07-20T09:40:08.514Z,44.48
2018-07-20T09:42:37.110Z,43.53
2018-07-20T09:45:06.310Z,44.13
2018-07-20T09:47:35.451Z,43.98
2018-07-20T09:50:04.354Z,44.58
2018-07-20T09:52:32.998Z,43.46
2018-07-20T09:55:02.280Z,42.62
2018-07-20T09:57:32.656Z,42.53
2018-07-20T10:00:01.566Z,42.13
2018-07-20T10:02:30.438Z,42.40
2018-07-20T10:04:59.008Z,43.81
2018-07-20T10:07:27.754Z,42.29
2018-07-20T10:09:56.380Z,42.43
2018-07-20T10:12:25.788Z,41.31
2018-07-20T10:14:55.284Z,42.51
2018-07-20T10:17:24.022Z,42.83
2018-07-20T10:19:53.031Z,42.97
2018-07-20T10:22:21.650Z,42.41
2018-07-20T10:24:51.649Z,42.68
2018-07-20T10:27:20.185Z,42.96
2018-07-20T10:29:48.698Z,41.95
2018-07-20T10:32:17.620Z,41.48
2018-07-20T10:34:47.320Z,41.60
2018-07-20T10:37:17.281Z,41.93
2018-07-20T10:39:45.906Z,42.16
2018-07-20T10:42:14.477Z,42.34
2018-07-20T10:44:43.166Z,41.85
2018-07-20T10:47:12.211Z,42.20
2018-07-20T10:49:40.725Z,41.70
2018-07-20T10:52:09.282Z,41.40
2018-07-20T10:54:37.765Z,41.06
2018-07-20T10:57:11.841Z,40.95
2018-07-20T10:59:40.464Z,39.91
2018-07-20T11:02:10.556Z,40.27
2018-07-20T11:04:39.706Z,39.03
2018-07-20T11:07:11.975Z,40.76
2018-07-20T11:09:41.750Z,39.65
2018-07-20T11:12:14.875Z,40.11
2018-07-20T11:14:46.435Z,40.78
2018-07-20T11:17:15.125Z,39.74
2018-07-20T11:19:43.796Z,39.86
2018-07-20T11:22:12.964Z,39.69
2018-07-20T11:24:41.509Z,39.48
2018-07-20T11:27:11.376Z,39.35
2018-07-20T11:29:39.858Z,38.93
2018-07-20T11:32:10.296Z,39.07
2018-07-20T11:34:41.107Z,38.74
2018-07-20T11:37:10.720Z,38.65
2018-07-20T11:39:39.973Z,38.71
2018-07-20T11:42:11.346Z,38.75
2018-07-20T11:44:40.676Z,38.38
2018-07-20T11:47:09.237Z,39.27
2018-07-20T11:49:39.177Z,38.80
2018-07-20T11:52:08.568Z,37.78
2018-07-20T11:54:37.145Z,38.21
2018-07-20T11:57:06.198Z,37.22
2018-07-20T11:59:34.927Z,37.67
2018-07-20T12:02:04.969Z,37.64
2018-07-20T12:04:33.807Z,36.76
2018-07-20T12:07:02.760Z,36.70
2018-07-20T12:09:31.351Z,36.50
2018-07-20T12:11:59.985Z,37.27
2018-07-20T12:14:29.486Z,37.19
2018-07-20T12:16:58.069Z,37.63
2018-07-20T12:19:26.728Z,34.88
2018-07-20T12:21:55.242Z,35.68
2018-07-20T12:24:24.617Z,36.59
2018-07-20T12:26:53.941Z,36.20
2018-07-20T12:29:22.460Z,35.67
2018-07-20T12:31:51.314Z,35.54
2018-07-20T12:34:21.014Z,35.85
2018-07-20T12:36:49.631Z,36.09
2018-07-20T12:39:18.329Z,36.00
2018-07-20T12:41:46.893Z,35.83
2018-07-20T12:44:16.469Z,34.54
2018-07-20T12:46:45.074Z,34.96
2018-07-20T12:49:13.526Z,33.79
2018-07-20T12:51:42.910Z,32.87
2018-07-20T12:54:11.568Z,32.67
2018-07-20T12:56:41.608Z,33.41
2018-07-20T12:59:10.166Z,34.16
2018-07-20T13:01:38.704Z,34.03
2018-07-20T13:04:07.309Z,32.96
2018-07-20T13:06:37.438Z,32.87
2018-07-20T13:09:12.893Z,32.16
2018-07-20T13:11:42.275Z,32.01
2018-07-20T13:14:12.846Z,31.32
2018-07-20T13:16:42.152Z,32.02
2018-07-20T13:19:11.867Z,32.01
2018-07-20T13:21:43.377Z,32.22
2018-07-20T13:24:13.087Z,32.30
2018-07-20T13:26:42.456Z,32.00
2018-07-20T13:29:11.111Z,31.92
2018-07-20T13:31:40.310Z,33.04
2018-07-20T13:34:08.825Z,31.50
2018-07-20T13:36:37.354Z,32.04
2018-07-20T13:39:08.960Z,31.10
2018-07-20T13:41:37.564Z,30.98
2018-07-20T13:44:06.201Z,30.74
2018-07-20T13:46:34.772Z,31.30
2018-07-20T13:49:04.332Z,31.37
2018-07-20T13:51:33.499Z,29.95
2018-07-20T13:54:02.073Z,29.89
2018-07-20T13:56:31.756Z,29.44
2018-07-20T13:59:01.078Z,29.20
2018-07-20T14:01:29.652Z,27.36
2018-07-20T14:03:59.599Z,28.77
2018-07-20T14:06:28.159Z,29.40
2018-07-20T14:08:57.993Z,29.00
2018-07-20T14:11:26.714Z,27.24
2018-07-20T14:13:55.233Z,27.76
2018-07-20T14:16:24.538Z,28.45
2018-07-20T14:18:53.120Z,29.09
2018-07-20T14:21:21.758Z,28.88
2018-07-20T14:23:50.281Z,27.88
2018-07-20T14:26:19.240Z,28.60
2018-07-20T14:28:48.105Z,27.92
2018-07-20T14:31:18.027Z,29.56
2018-07-20T14:33:47.180Z,28.71
2018-07-20T14:36:16.115Z,27.94
2018-07-20T14:38:45.317Z,27.66
2018-07-20T14:41:14.670Z,28.09
2018-07-20T14:43:44.230Z,28.82
2018-07-20T14:46:12.961Z,28.08
2018-07-20T14:48:41.836Z,26.28
2018-07-20T14:51:11.209Z,26.31
2018-07-20T14:53:39.860Z,27.81
2018-07-20T14:56:08.469Z,26.47
2018-07-20T14:58:37.417Z,26.61
2018-07-20T15:01:06.025Z,26.39
2018-07-20T15:03:34.624Z,26.55
2018-07-20T15:06:03.312Z,26.04
2018-07-20T15:08:32.065Z,26.47
2018-07-20T15:11:01.149Z,26.92
2018-07-20T15:13:29.802Z,26.73
2018-07-20T15:15:59.479Z,27.01
2018-07-20T15:18:27.975Z,25.55
2018-07-20T15:20:57.267Z,25.76
2018-07-20T15:23:25.889Z,26.55
2018-07-20T15:25:54.608Z,24.98
2018-07-20T15:28:24.232Z,24.79
2018-07-20T15:30:53.088Z,25.64
2018-07-20T15:33:22.482Z,25.36
2018-07-20T15:35:51.984Z,24.54
2018-07-20T15:38:24.596Z,24.27
2018-07-20T15:40:53.215Z,24.56
2018-07-20T15:43:21.746Z,24.61
2018-07-20T15:46:05.768Z,25.36
2018-07-20T15:48:18.976Z,24.96
2018-07-20T15:50:47.545Z,24.20
2018-07-20T15:53:43.450Z,24.88
2018-07-20T15:55:45.054Z,24.28
2018-07-20T15:58:15.058Z,23.79
2018-07-20T16:00:43.641Z,24.09
2018-07-20T16:03:12.285Z,24.23
2018-07-20T16:05:42.720Z,24.21
2018-07-20T16:08:12.416Z,25.49
2018-07-20T16:10:41.204Z,25.82
2018-07-20T16:13:10.720Z,25.92
2018-07-20T16:15:39.605Z,26.22
2018-07-20T16:18:08.230Z,25.90
2018-07-20T16:20:36.800Z,26.71
2018-07-20T16:23:05.306Z,26.31
2018-07-20T16:25:34.035Z,26.21
2018-07-20T16:28:02.576Z,25.83
2018-07-20T16:30:31.224Z,26.29
2018-07-20T16:32:59.693Z,25.74
2018-07-20T16:35:28.176Z,25.43
2018-07-20T16:37:56.688Z,25.34
2018-07-20T16:40:26.007Z,25.34
2018-07-20T16:42:54.473Z,24.42
2018-07-20T16:45:28.524Z,24.33
2018-07-20T16:47:57.071Z,25.12
2018-07-20T16:50:26.545Z,25.34
2018-07-20T16:52:55.928Z,25.37
2018-07-20T16:55:25.361Z,26.21
2018-07-20T16:57:54.928Z,25.88
2018-07-20T17:00:24.012Z,26.50
2018-07-20T17:02:52.618Z,26.29
2018-07-20T17:05:21.554Z,27.27
2018-07-20T17:07:50.744Z,26.64
2018-07-20T17:10:19.400Z,27.27
2018-07-20T17:12:48.214Z,27.53
2018-07-20T17:15:17.107Z,27.28
2018-07-20T17:17:47.152Z,28.56
2018-07-20T17:20:16.030Z,28.69
2018-07-20T17:22:45.017Z,28.38
2018-07-20T17:25:14.650Z,28.69
2018-07-20T17:27:43.298Z,28.19
2018-07-20T17:30:11.883Z,28.43
2018-07-20T17:32:40.529Z,29.97
2018-07-20T17:35:09.146Z,29.85
2018-07-20T17:37:38.514Z,30.59
2018-07-20T17:40:07.945Z,30.54
2018-07-20T17:42:36.497Z,29.72
2018-07-20T17:45:05.279Z,29.72
2018-07-20T17:47:33.994Z,30.65
2018-07-20T17:50:02.656Z,30.33
2018-07-20T17:52:31.143Z,30.90
2018-07-20T17:54:59.636Z,29.88
2018-07-20T17:57:28.234Z,29.84
2018-07-20T17:59:56.760Z,31.32
2018-07-20T18:02:25.371Z,31.53
2018-07-20T18:04:53.913Z,31.18
2018-07-20T18:07:23.147Z,32.20
2018-07-20T18:09:51.628Z,32.12
2018-07-20T18:12:20.614Z,31.46
2018-07-20T18:14:50.238Z,31.42
2018-07-20T18:17:22.895Z,31.95
2018-07-20T18:19:52.327Z,32.23
2018-07-20T18:22:20.910Z,32.92
2018-07-20T18:24:49.527Z,31.34
2018-07-20T18:27:18.800Z,31.87
2018-07-20T18:29:48.263Z,32.11
2018-07-20T18:32:16.807Z,33.50
2018-07-20T18:34:46.147Z,33.42
2018-07-20T18:37:16.409Z,32.49
2018-07-20T18:39:46.684Z,32.84
2018-07-20T18:42:15.314Z,33.88
2018-07-20T18:44:44.355Z,32.92
2018-07-20T18:47:12.963Z,33.97
2018-07-20T18:49:41.515Z,34.13
2018-07-20T18:52:10.204Z,33.76
2018-07-20T18:54:38.777Z,34.08
2018-07-20T18:57:07.336Z,34.76
2018-07-20T18:59:35.958Z,33.70
2018-07-20T19:02:04.577Z,34.21
2018-07-20T19:04:33.117Z,33.72
2018-07-20T19:07:02.133Z,34.21
2018-07-20T19:09:31.159Z,35.04
2018-07-20T19:11:59.706Z,34.96
2018-07-20T19:14:28.213Z,35.52
2018-07-20T19:16:57.084Z,34.78
2018-07-20T19:19:25.696Z,35.37
2018-07-20T19:21:54.325Z,34.93
2018-07-20T19:24:23.578Z,35.29
2018-07-20T19:26:52.089Z,35.51
2018-07-20T19:29:21.035Z,36.67
2018-07-20T19:31:49.737Z,36.42
2018-07-20T19:34:18.462Z,36.34
2018-07-20T19:36:46.996Z,36.35
2018-07-20T19:39:17.402Z,36.36
2018-07-20T19:41:46.002Z,36.27
2018-07-20T19:44:14.509Z,36.95
2018-07-20T19:46:43.994Z,37.42
2018-07-20T19:49:12.582Z,38.16
2018-07-20T19:51:41.187Z,37.92
2018-07-20T19:54:09.749Z,37.20
2018-07-20T19:56:38.356Z,37.05
2018-07-20T19:59:07.229Z,38.11
2018-07-20T20:01:35.704Z,37.61
2018-07-20T20:04:04.268Z,38.10
2018-07-20T20:06:33.080Z,38.11
2018-07-20T20:09:01.685Z,38.25
2018-07-20T20:11:30.506Z,38.76
2018-07-20T20:14:00.122Z,38.30
2018-07-20T20:16:29.667Z,38.58
2018-07-20T20:19:00.121Z,39.01
2018-07-20T20:21:28.885Z,38.84
2018-07-20T20:23:57.596Z,38.80
2018-07-20T20:26:27.633Z,39.21
2018-07-20T20:28:56.157Z,39.52
2018-07-20T20:31:24.790Z,39.72
2018-07-20T20:33:53.485Z,38.98
2018-07-20T20:36:22.061Z,40.27
2018-07-20T20:38:51.296Z,39.90
2018-07-20T20:41:19.819Z,40.14
2018-07-20T20:43:48.339Z,40.52
2018-07-20T20:46:16.968Z,40.90
2018-07-20T20:48:45.566Z,40.12
2018-07-20T20:51:14.087Z,40.71
2018-07-20T20:53:42.641Z,41.23
2018-07-20T20:56:11.744Z,40.80
2018-07-20T20:58:40.734Z,40.97
2018-07-20T21:01:09.465Z,41.09
2018-07-20T21:03:38.512Z,41.83
2018-07-20T21:06:07.295Z,41.54
2018-07-20T21:08:37.311Z,41.79
2018-07-20T21:11:06.367Z,41.51
2018-07-20T21:13:34.881Z,41.85
2018-07-20T21:16:03.685Z,42.41
2018-07-20T21:18:32.332Z,42.28
2018-07-20T21:21:00.977Z,41.77
2018-07-20T21:23:31.701Z,41.68
2018-07-20T21:26:01.673Z,42.49
2018-07-20T21:28:30.792Z,42.65
2018-07-20T21:31:00.424Z,43.34
2018-07-20T21:33:29.665Z,42.11
2018-07-20T21:35:58.132Z,42.86
2018-07-20T21:38:26.769Z,42.90
2018-07-20T21:40:55.462Z,42.65
2018-07-20T21:43:25.057Z,42.30
2018-07-20T21:45:53.693Z,42.06
2018-07-20T21:48:22.219Z,41.81
2018-07-20T21:50:50.816Z,42.51
2018-07-20T21:53:19.395Z,42.14
2018-07-20T21:55:47.971Z,42.39
2018-07-20T21:58:16.761Z,41.63
2018-07-20T22:00:45.437Z,41.64
2018-07-20T22:03:13.998Z,42.15
2018-07-20T22:05:42.640Z,41.17
2018-07-20T22:08:11.863Z,41.41
2018-07-20T22:10:41.936Z,41.89
2018-07-20T22:13:11.358Z,41.36
2018-07-20T22:15:40.424Z,41.53
2018-07-20T22:18:08.962Z,41.36
2018-07-20T22:20:37.676Z,41.52
2018-07-20T22:23:06.545Z,41.53
2018-07-20T22:25:35.022Z,41.61
2018-07-20T22:28:03.604Z,41.48
2018-07-20T22:30:32.283Z,41.27
2018-07-20T22:33:01.342Z,40.64
2018-07-20T22:35:31.154Z,41.59
2018-07-20T22:38:03.094Z,40.82
2018-07-20T22:40:31.667Z,41.21
2018-07-20T22:43:01.590Z,40.69
2018-07-20T22:45:30.097Z,40.40
2018-07-20T22:47:59.287Z,40.66
2018-07-20T22:50:27.915Z,40.37
2018-07-20T22:52:56.399Z,40.38
2018-07-20T22:55:25.428Z,40.78
2018-07-20T22:57:54.836Z,40.25
2018-07-20T23:00:23.414Z,40.43
2018-07-20T23:02:53.299Z,40.75
2018-07-20T23:05:25.468Z,41.21
2018-07-20T23:07:55.477Z,40.29
2018-07-20T23:10:24.076Z,40.20
2018-07-20T23:12:52.682Z,40.48
2018-07-20T23:15:22.396Z,40.08
2018-07-20T23:17:51.128Z,40.17
2018-07-20T23:20:20.155Z,40.87
2018-07-20T23:22:48.904Z,40.34
2018-07-20T23:25:18.771Z,40.57
2018-07-20T23:27:48.628Z,40.82
2018-07-20T23:30:17.452Z,40.47
2018-07-20T23:32:46.518Z,40.75
2018-07-20T23:35:16.084Z,40.50
2018-07-20T23:37:44.623Z,41.21
2018-07-20T23:40:13.200Z,40.67
2018-07-20T23:42:42.885Z,40.22
2018-07-20T23:45:12.369Z,40.61
2018-07-20T23:47:41.172Z,41.02
2018-07-20T23:50:10.216Z,39.73
2018-07-20T23:52:38.966Z,40.61
2018-07-20T23:55:09.389Z,40.51
2018-07-20T23:57:38.952Z,40.12
